createdAt,value
2022-10-02T00:00:42.885Z,14.9
2022-10-02T00:05:49.725Z,14.9
2022-10-02T00:11:32.317Z,14.9
2022-10-02T00:17:10.666Z,14.9
2022-10-02T00:22:47.510Z,14.9
2022-10-02T00:28:09.272Z,14.9
2022-10-02T00:33:47.907Z,14.9
2022-10-02T00:39:09.280Z,14.9
2022-10-02T00:44:45.894Z,14.9
2022-10-02T00:50:22.829Z,14.9
2022-10-02T00:55:43.526Z,14.9
2022-10-02T01:01:20.557Z,14.9
2022-10-02T01:06:58.024Z,14.8
2022-10-02T01:12:04.367Z,14.8
2022-10-02T01:17:41.488Z,14.8
2022-10-02T01:23:18.956Z,14.6
2022-10-02T01:28:41.071Z,14.5
2022-10-02T01:34:17.598Z,14.4
2022-10-02T01:39:54.742Z,14.3
2022-10-02T01:45:15.724Z,14.2
2022-10-02T01:50:53.992Z,14.1
2022-10-02T01:56:31.975Z,13.9
2022-10-02T02:02:09.392Z,13.9
2022-10-02T02:07:47.818Z,13.8
2022-10-02T02:18:47.013Z,13.6
2022-10-02T02:24:08.521Z,13.5
2022-10-02T02:29:31.912Z,13.5
2022-10-02T02:35:08.630Z,13.4
2022-10-02T02:40:45.118Z,13.4
2022-10-02T02:46:25.619Z,13.3
2022-10-02T02:52:02.630Z,13.3
2022-10-02T02:57:46.263Z,13.2
2022-10-02T03:03:24.448Z,13.1
2022-10-02T03:09:01.800Z,13.1
2022-10-02T03:14:38.584Z,13.1
2022-10-02T03:20:16.665Z,13.1
2022-10-02T03:25:53.711Z,13.2
2022-10-02T03:32:00.166Z,13.3
2022-10-02T03:37:37.333Z,13.3
2022-10-02T03:43:43.520Z,13.3
2022-10-02T03:49:45.636Z,13.3
2022-10-02T03:55:09.896Z,13.3
2022-10-02T04:00:30.600Z,13.3
2022-10-02T04:05:52.974Z,13.3
2022-10-02T04:11:04.341Z,13.4
2022-10-02T04:16:10.504Z,13.3
2022-10-02T04:21:16.374Z,13.4
2022-10-02T04:26:23.352Z,13.4
2022-10-02T04:31:29.934Z,13.4
2022-10-02T04:36:20.537Z,13.4
2022-10-02T04:41:48.146Z,13.5
2022-10-02T04:47:25.544Z,13.6
2022-10-02T04:53:02.153Z,13.8
2022-10-02T04:58:39.567Z,13.8
2022-10-02T05:04:04.132Z,14.8
2022-10-02T05:09:45.783Z,16
2022-10-02T05:15:23.369Z,16.5
2022-10-02T05:20:45.489Z,16.7
2022-10-02T05:26:27.159Z,16.9
2022-10-02T05:31:32.803Z,17.1
2022-10-02T05:36:43.523Z,17.2
2022-10-02T05:41:34.069Z,17.3
2022-10-02T05:46:44.107Z,17.3
2022-10-02T05:51:50.176Z,17.3
2022-10-02T05:57:13.286Z,17.5
2022-10-02T06:02:38.942Z,17.8
2022-10-02T06:07:45.733Z,17.9
2022-10-02T06:12:52.447Z,20.2
2022-10-02T06:18:33.487Z,25.4
2022-10-02T06:23:59.909Z,30
2022-10-02T06:29:42.385Z,34
2022-10-02T06:34:49.630Z,37.6
2022-10-02T06:40:27.502Z,32.2
2022-10-02T06:45:33.260Z,33.4
2022-10-02T06:50:39.985Z,40.2
2022-10-02T06:55:50.125Z,38.9
2022-10-02T07:00:56.701Z,39
2022-10-02T07:06:19.301Z,39.9
2022-10-02T07:11:42.115Z,41.4
2022-10-02T07:17:22.278Z,42.7
2022-10-02T07:23:07.709Z,43.2
2022-10-02T07:28:35.114Z,43.4
2022-10-02T07:34:03.796Z,43.5
2022-10-02T07:39:41.951Z,44.2
2022-10-02T07:45:19.988Z,45
2022-10-02T07:50:57.695Z,45.8
2022-10-02T07:56:41.685Z,46.8
2022-10-02T08:02:19.038Z,47.6
2022-10-02T08:08:02.913Z,48.3
2022-10-02T08:13:40.249Z,48.2
2022-10-02T08:19:45.001Z,47.6
2022-10-02T08:25:06.411Z,48.3
2022-10-02T08:30:49.864Z,46
2022-10-02T08:36:32.671Z,46.1
2022-10-02T08:41:54.239Z,49.8
2022-10-02T08:47:32.057Z,50.8
2022-10-02T08:53:09.648Z,51.7
2022-10-02T08:58:34.926Z,52.9
2022-10-02T09:04:01.335Z,53.4
2022-10-02T09:08:58.347Z,54.4
2022-10-02T09:14:04.659Z,55.2
2022-10-02T09:19:31.761Z,55.6
2022-10-02T09:24:55.396Z,55.7
2022-10-02T09:30:02.780Z,55.5
2022-10-02T09:35:40.022Z,55.7
2022-10-02T09:41:16.908Z,56.4
2022-10-02T09:46:54.740Z,56.1
2022-10-02T09:52:32.515Z,55.2
2022-10-02T09:58:09.949Z,55.7
2022-10-02T10:03:53.168Z,55.8
2022-10-02T10:09:54.912Z,56.6
2022-10-02T10:15:32.897Z,57.3
2022-10-02T10:21:10.117Z,58.2
2022-10-02T10:26:51.825Z,59
2022-10-02T10:32:30.197Z,59.6
2022-10-02T10:37:56.341Z,60.4
2022-10-02T10:43:40.540Z,60.4
2022-10-02T10:49:23.398Z,59.6
2022-10-02T10:50:51.238Z,59.6
2022-10-02T10:56:32.242Z,59.3
2022-10-02T11:01:59.644Z,59.7
2022-10-02T11:07:21.527Z,60.2
2022-10-02T11:12:43.611Z,59.8
2022-10-02T11:18:06.175Z,60.1
2022-10-02T11:23:28.449Z,58.4
2022-10-02T11:29:10.206Z,62.1
2022-10-02T11:34:48.845Z,62.5
2022-10-02T11:40:26.155Z,56.6
2022-10-02T11:46:03.427Z,59.6
2022-10-02T11:51:40.919Z,65.4
2022-10-02T11:57:20.780Z,58.6
2022-10-02T12:02:58.657Z,55.9
2022-10-02T12:08:36.682Z,59.1
2022-10-02T12:14:15.250Z,61.7
2022-10-02T12:19:52.479Z,62.4
2022-10-02T12:25:14.594Z,55.1
2022-10-02T12:30:52.431Z,56.4
2022-10-02T12:36:32.205Z,58.5
2022-10-02T12:42:14.230Z,59.7
2022-10-02T12:47:36.435Z,60.4
2022-10-02T12:53:13.745Z,60.3
2022-10-02T12:58:51.377Z,59.7
2022-10-02T13:04:57.756Z,58.8
2022-10-02T13:10:36.916Z,57.3
2022-10-02T13:15:58.858Z,54.8
2022-10-02T13:21:41.284Z,54
2022-10-02T13:27:24.446Z,53.3
2022-10-02T13:33:04.244Z,49.6
2022-10-02T13:38:42.345Z,45.1
2022-10-02T13:44:20.413Z,43.3
2022-10-02T13:49:57.909Z,43.1
2022-10-02T13:55:39.352Z,41.1
2022-10-02T14:01:20.735Z,40.6
2022-10-02T14:06:59.052Z,41.3
2022-10-02T14:12:36.672Z,40.5
2022-10-02T14:18:18.123Z,38.2
2022-10-02T14:23:55.430Z,37.1
2022-10-02T14:29:33.062Z,34.6
2022-10-02T14:35:12.097Z,33.6
2022-10-02T14:40:49.179Z,33.5
2022-10-02T14:46:27.992Z,32.9
2022-10-02T14:52:05.201Z,31.9
2022-10-02T14:57:42.917Z,30.8
2022-10-02T15:20:23.138Z,26.4
2022-10-02T15:26:01.532Z,25.4
2022-10-02T15:32:03.280Z,24.4
2022-10-02T15:37:43.035Z,23.5
2022-10-02T15:43:24.240Z,22.6
2022-10-02T15:49:01.480Z,21.8
2022-10-02T15:54:39.039Z,21.1
2022-10-02T16:00:22.057Z,20.3
2022-10-02T16:05:59.967Z,19.6
2022-10-02T16:11:36.775Z,18.9
2022-10-02T16:17:16.260Z,18.3
2022-10-02T16:22:53.973Z,17.7
2022-10-02T16:24:11.709Z,17.6
2022-10-02T16:34:57.200Z,16.6
2022-10-02T16:40:35.196Z,16.1
2022-10-02T16:46:14.523Z,15.8
2022-10-02T16:51:38.089Z,15.6
2022-10-02T16:57:15.046Z,15.3
2022-10-02T17:03:24.681Z,15.1
2022-10-02T17:08:47.275Z,14.8
2022-10-02T17:14:24.268Z,14.6
2022-10-02T17:20:03.881Z,14.4
2022-10-02T17:25:42.234Z,14.3
2022-10-02T17:31:23.933Z,14.3
2022-10-02T17:37:06.197Z,14.2
2022-10-02T17:42:44.786Z,14.1
2022-10-02T17:48:27.363Z,14
2022-10-02T17:54:38.698Z,13.9
2022-10-02T18:00:21.546Z,13.8
2022-10-02T18:05:43.275Z,13.8
2022-10-02T18:11:22.605Z,13.6
2022-10-02T18:16:51.654Z,13.6
2022-10-02T18:21:57.999Z,13.4
2022-10-02T18:27:19.538Z,13.3
2022-10-02T18:33:07.941Z,13.3
2022-10-02T18:38:43.868Z,13.2
2022-10-02T18:44:21.795Z,13.1
2022-10-02T18:49:47.994Z,13.1
2022-10-02T18:55:25.269Z,12.9
2022-10-02T19:00:52.463Z,12.6
2022-10-02T19:06:31.662Z,12.4
2022-10-02T19:12:09.094Z,12.2
2022-10-02T19:17:50.124Z,12
2022-10-02T19:23:28.535Z,11.8
2022-10-02T19:28:50.804Z,11.7
2022-10-02T19:34:28.050Z,11.6
2022-10-02T19:39:50.950Z,11.4
2022-10-02T19:45:40.318Z,11.1
2022-10-02T19:51:17.276Z,10.9
2022-10-02T19:56:45.248Z,10.8
2022-10-02T20:02:24.458Z,10.6
2022-10-02T20:07:46.259Z,10.4
2022-10-02T20:13:12.824Z,10.3
2022-10-02T20:18:53.408Z,10.1
2022-10-02T20:24:30.212Z,9.9
2022-10-02T20:30:08.395Z,9.9
